Time;durP1;ratioP1;P1;durP2;ratioP2;P2;SDS_P1;SDS_P2;PMS_P1;PMS_P2;Temp;Humidity;BMP_temperature;BMP_pressure;BME280_temperature;BME280_humidity;BME280_pressure;Samples;Min_cycle;Max_cycle;Signal;HPM_P1;HPM_P2
2023/07/10 00:01:33;;;;;;;21.63;13.70;;;;;;;;;;6209943;23;20087;-61
2023/07/10 00:03:59;;;;;;;21.15;13.07;;;;;;;;;;6212034;23;20222;-61
2023/07/10 00:06:25;;;;;;;21.77;13.25;;;;;;;;;;6212383;23;20009;-61
2023/07/10 00:08:51;;;;;;;22.95;12.48;;;;;;;;;;6211795;23;20017;-61
2023/07/10 00:11:18;;;;;;;25.40;12.57;;;;;;;;;;6212542;23;20186;-61
2023/07/10 00:13:47;;;;;;;19.23;13.30;;;;;;;;;;6212352;23;20024;-61
2023/07/10 00:16:21;;;;;;;22.73;14.05;;;;;;;;;;6211736;23;20020;-61
2023/07/10 00:18:48;;;;;;;20.08;14.45;;;;;;;;;;6212531;23;20024;-61
2023/07/10 00:21:14;;;;;;;19.77;13.68;;;;;;;;;;6212023;23;20038;-61
2023/07/10 00:23:40;;;;;;;21.95;15.00;;;;;;;;;;6211574;23;20017;-61
2023/07/10 00:26:24;;;;;;;21.33;14.27;;;;;;;;;;6212255;23;20013;-61
2023/07/10 00:28:52;;;;;;;19.85;15.75;;;;;;;;;;6212057;23;20016;-61
2023/07/10 00:31:18;;;;;;;20.55;15.10;;;;;;;;;;6211176;23;20067;-61
2023/07/10 00:33:47;;;;;;;24.50;15.48;;;;;;;;;;6211976;23;20409;-61
2023/07/10 00:36:26;;;;;;;22.63;16.13;;;;;;;;;;6211585;23;20016;-61
2023/07/10 00:38:52;;;;;;;21.42;14.57;;;;;;;;;;6211475;23;20013;-61
2023/07/10 00:41:18;;;;;;;26.10;17.17;;;;;;;;;;6211593;23;20461;-61
2023/07/10 00:43:50;;;;;;;22.30;16.30;;;;;;;;;;6211502;23;20020;-61
2023/07/10 00:46:36;;;;;;;23.92;17.15;;;;;;;;;;6211684;23;20019;-61
2023/07/10 00:49:10;;;;;;;23.00;16.15;;;;;;;;;;6211887;23;20009;-61
2023/07/10 00:51:55;;;;;;;21.05;15.77;;;;;;;;;;6212003;23;20513;-61
2023/07/10 00:54:28;;;;;;;24.80;16.85;;;;;;;;;;6211519;23;20019;-61
2023/07/10 00:56:54;;;;;;;25.45;18.83;;;;;;;;;;6212292;23;20020;-61
2023/07/10 00:59:26;;;;;;;27.13;19.20;;;;;;;;;;6211910;23;20023;-61
2023/07/10 01:02:10;;;;;;;29.47;18.93;;;;;;;;;;6211284;23;20031;-61
2023/07/10 01:04:39;;;;;;;27.67;18.58;;;;;;;;;;6211662;23;20019;-61
2023/07/10 01:07:06;;;;;;;32.22;18.95;;;;;;;;;;6211779;23;20391;-61
2023/07/10 01:09:33;;;;;;;32.58;20.13;;;;;;;;;;6212111;23;20013;-61
2023/07/10 01:11:59;;;;;;;27.08;19.48;;;;;;;;;;6211874;23;20439;-61
2023/07/10 01:14:25;;;;;;;24.27;18.73;;;;;;;;;;6211208;23;20553;-61
2023/07/10 01:16:52;;;;;;;29.25;19.60;;;;;;;;;;6211056;23;20047;-61
2023/07/10 01:19:20;;;;;;;31.15;21.23;;;;;;;;;;6211172;23;20028;-61
2023/07/10 01:21:46;;;;;;;30.35;21.77;;;;;;;;;;6211516;23;20376;-61
2023/07/10 01:24:13;;;;;;;33.83;21.13;;;;;;;;;;6211344;23;20020;-61
2023/07/10 01:26:40;;;;;;;33.22;22.63;;;;;;;;;;6211708;23;20393;-61
2023/07/10 01:29:15;;;;;;;40.78;22.48;;;;;;;;;;6211627;23;20091;-61
2023/07/10 01:31:42;;;;;;;35.25;22.48;;;;;;;;;;6211142;23;20036;-61
2023/07/10 01:34:10;;;;;;;33.30;21.10;;;;;;;;;;6184514;23;20105;-61
2023/07/10 01:36:37;;;;;;;35.05;21.27;;;;;;;;;;6211057;23;20032;-61
2023/07/10 01:39:06;;;;;;;37.63;22.65;;;;;;;;;;6211434;23;20024;-61
2023/07/10 01:41:32;;;;;;;35.50;21.27;;;;;;;;;;6211376;23;20012;-61
2023/07/10 01:43:59;;;;;;;31.17;20.85;;;;;;;;;;6211360;23;20470;-61
2023/07/10 01:46:26;;;;;;;28.15;20.58;;;;;;;;;;6211048;23;20017;-61
2023/07/10 01:48:54;;;;;;;36.35;23.92;;;;;;;;;;6211551;23;20440;-61
2023/07/10 01:51:20;;;;;;;37.80;22.98;;;;;;;;;;6211338;23;20036;-61
2023/07/10 01:53:47;;;;;;;34.03;22.20;;;;;;;;;;6211310;23;20395;-61
2023/07/10 01:56:13;;;;;;;32.88;20.25;;;;;;;;;;6211085;23;20016;-61
2023/07/10 01:58:39;;;;;;;27.25;20.85;;;;;;;;;;6184494;23;20023;-61
2023/07/10 02:01:05;;;;;;;33.80;21.75;;;;;;;;;;6210767;23;20020;-61
2023/07/10 02:03:31;;;;;;;29.40;20.98;;;;;;;;;;6184859;23;20505;-61
2023/07/10 02:05:57;;;;;;;32.67;20.63;;;;;;;;;;6211276;23;20013;-61
2023/07/10 02:08:25;;;;;;;27.33;19.45;;;;;;;;;;6210802;23;20074;-62
2023/07/10 02:10:51;;;;;;;35.33;22.30;;;;;;;;;;6211262;23;20043;-62
2023/07/10 02:13:17;;;;;;;34.65;21.80;;;;;;;;;;6211341;23;20059;-61
2023/07/10 02:15:42;;;;;;;33.78;22.27;;;;;;;;;;6210609;23;20009;-61
2023/07/10 02:18:08;;;;;;;26.70;19.55;;;;;;;;;;6211132;23;20428;-61
2023/07/10 02:20:34;;;;;;;34.03;21.33;;;;;;;;;;6211181;23;20071;-61
2023/07/10 02:23:00;;;;;;;30.38;20.55;;;;;;;;;;6210518;23;20016;-61
2023/07/10 02:25:26;;;;;;;34.80;24.00;;;;;;;;;;6210916;23;20008;-61
2023/07/10 02:27:52;;;;;;;38.03;22.85;;;;;;;;;;6211037;23;20429;-61
2023/07/10 02:30:18;;;;;;;29.10;21.00;;;;;;;;;;6210588;23;20023;-61
2023/07/10 02:32:44;;;;;;;29.30;21.90;;;;;;;;;;6210968;23;20016;-61
2023/07/10 02:35:10;;;;;;;37.28;22.90;;;;;;;;;;6210316;23;20095;-61
2023/07/10 02:37:36;;;;;;;35.47;24.40;;;;;;;;;;6210553;23;20021;-61
2023/07/10 02:40:03;;;;;;;38.92;23.67;;;;;;;;;;6211002;23;20074;-61
2023/07/10 02:42:29;;;;;;;35.05;23.55;;;;;;;;;;6210863;23;20526;-61
2023/07/10 02:44:55;;;;;;;33.13;21.45;;;;;;;;;;6210475;23;20428;-61
2023/07/10 02:47:21;;;;;;;31.70;23.20;;;;;;;;;;6210880;23;20032;-61
2023/07/10 02:49:47;;;;;;;37.38;24.77;;;;;;;;;;6211359;23;20008;-61
2023/07/10 02:52:13;;;;;;;30.20;22.50;;;;;;;;;;6210191;23;20016;-61
2023/07/10 02:54:39;;;;;;;31.65;22.45;;;;;;;;;;6211003;23;20111;-61
2023/07/10 02:57:05;;;;;;;28.92;21.58;;;;;;;;;;6210990;23;20023;-61
2023/07/10 02:59:31;;;;;;;32.42;21.95;;;;;;;;;;6183556;23;20020;-61
2023/07/10 03:01:59;;;;;;;34.17;22.65;;;;;;;;;;6211165;23;20051;-61
2023/07/10 03:04:25;;;;;;;33.78;21.45;;;;;;;;;;6210740;23;20088;-61
2023/07/10 03:06:51;;;;;;;28.83;20.73;;;;;;;;;;6210266;23;20036;-61
2023/07/10 03:09:17;;;;;;;31.23;21.35;;;;;;;;;;6210869;23;20152;-61
2023/07/10 03:11:43;;;;;;;26.30;20.15;;;;;;;;;;6210858;23;20020;-61
2023/07/10 03:14:10;;;;;;;28.77;21.33;;;;;;;;;;6210482;23;20550;-61
2023/07/10 03:16:36;;;;;;;28.50;20.80;;;;;;;;;;6210732;23;20027;-61
2023/07/10 03:19:02;;;;;;;32.15;21.60;;;;;;;;;;6210972;23;20090;-61
2023/07/10 03:21:28;;;;;;;26.25;20.52;;;;;;;;;;6209926;23;20509;-61
2023/07/10 03:23:54;;;;;;;30.08;19.27;;;;;;;;;;6210492;23;20340;-61
2023/07/10 03:26:19;;;;;;;27.23;18.48;;;;;;;;;;6210970;23;20009;-61
2023/07/10 03:28:45;;;;;;;27.20;18.02;;;;;;;;;;6210320;23;20036;-61
2023/07/10 03:31:11;;;;;;;24.95;17.73;;;;;;;;;;6210645;23;20474;-61
2023/07/10 03:33:37;;;;;;;26.90;17.38;;;;;;;;;;6210684;23;20074;-61
2023/07/10 03:36:06;;;;;;;27.63;16.92;;;;;;;;;;6209838;23;20490;-61
2023/07/10 03:38:33;;;;;;;23.02;16.65;;;;;;;;;;6212495;23;20083;-61
2023/07/10 03:40:59;;;;;;;22.30;15.82;;;;;;;;;;6186197;23;20417;-61
2023/07/10 03:43:26;;;;;;;25.20;17.38;;;;;;;;;;6211921;23;20091;-61
2023/07/10 03:45:53;;;;;;;24.30;17.10;;;;;;;;;;6212444;23;20016;-61
2023/07/10 03:48:19;;;;;;;24.90;16.95;;;;;;;;;;6212710;23;20332;-61
2023/07/10 03:50:45;;;;;;;24.30;16.83;;;;;;;;;;6212077;23;20009;-61
2023/07/10 03:53:11;;;;;;;21.63;16.80;;;;;;;;;;6212460;23;20513;-61
2023/07/10 03:55:37;;;;;;;26.40;18.77;;;;;;;;;;6212720;23;20017;-61
2023/07/10 03:58:03;;;;;;;30.90;19.40;;;;;;;;;;6212351;23;20304;-61
2023/07/10 04:00:29;;;;;;;24.42;18.27;;;;;;;;;;6212664;23;20024;-61
2023/07/10 04:02:55;;;;;;;24.88;19.25;;;;;;;;;;6211941;23;20012;-61
2023/07/10 04:05:21;;;;;;;27.17;20.63;;;;;;;;;;6211980;23;20135;-61
2023/07/10 04:07:47;;;;;;;30.20;19.85;;;;;;;;;;6212519;23;20103;-61
2023/07/10 04:10:13;;;;;;;25.35;19.73;;;;;;;;;;6212123;23;20009;-61
2023/07/10 04:12:43;;;;;;;32.00;21.55;;;;;;;;;;6211781;23;20012;-61
2023/07/10 04:15:09;;;;;;;28.30;19.73;;;;;;;;;;6212576;23;20070;-61
2023/07/10 04:17:35;;;;;;;26.23;19.45;;;;;;;;;;6213820;23;20012;-61
2023/07/10 04:20:01;;;;;;;27.20;19.98;;;;;;;;;;6214108;23;20049;-61
2023/07/10 04:22:27;;;;;;;23.10;19.63;;;;;;;;;;6214506;23;20078;-61
2023/07/10 04:24:53;;;;;;;31.88;19.73;;;;;;;;;;6214129;23;20017;-61
2023/07/10 04:27:19;;;;;;;25.13;20.38;;;;;;;;;;6213711;23;20016;-61
2023/07/10 04:29:45;;;;;;;31.88;20.83;;;;;;;;;;6213933;23;20044;-61
2023/07/10 04:32:11;;;;;;;26.08;20.90;;;;;;;;;;6213579;23;20016;-61
2023/07/10 04:34:37;;;;;;;26.33;19.45;;;;;;;;;;6213351;23;20470;-61
2023/07/10 04:37:03;;;;;;;25.52;20.48;;;;;;;;;;6214042;23;20020;-61
2023/07/10 04:39:29;;;;;;;22.55;18.73;;;;;;;;;;6214240;23;20036;-61
2023/07/10 04:41:55;;;;;;;24.38;19.70;;;;;;;;;;6213199;23;20482;-61
2023/07/10 04:44:23;;;;;;;23.55;18.63;;;;;;;;;;6213798;23;20013;-61
2023/07/10 04:46:49;;;;;;;24.85;17.35;;;;;;;;;;6213854;23;20044;-61
2023/07/10 04:49:15;;;;;;;22.33;17.15;;;;;;;;;;6213454;23;20325;-61
2023/07/10 04:51:41;;;;;;;22.60;14.85;;;;;;;;;;6213474;23;20017;-61
2023/07/10 04:54:07;;;;;;;18.17;13.05;;;;;;;;;;6213669;23;20070;-61
2023/07/10 04:56:33;;;;;;;19.15;14.20;;;;;;;;;;6213803;23;20023;-62
2023/07/10 04:58:59;;;;;;;16.52;12.27;;;;;;;;;;6213731;23;20466;-62
2023/07/10 05:01:32;;;;;;;14.30;11.93;;;;;;;;;;6213862;23;20021;-62
2023/07/10 05:03:59;;;;;;;14.50;10.40;;;;;;;;;;6213254;23;20340;-62
2023/07/10 05:06:25;;;;;;;13.88;10.30;;;;;;;;;;6212236;23;20009;-62
2023/07/10 05:08:55;;;;;;;9.13;7.50;;;;;;;;;;6186690;23;20027;-62
2023/07/10 05:11:22;;;;;;;11.15;8.15;;;;;;;;;;6213437;23;20013;-62
2023/07/10 05:13:48;;;;;;;10.25;7.63;;;;;;;;;;6213338;23;20016;-62
2023/07/10 05:16:15;;;;;;;10.45;7.20;;;;;;;;;;6213899;23;20391;-62
2023/07/10 05:18:41;;;;;;;8.15;6.07;;;;;;;;;;6213354;23;20131;-62
2023/07/10 05:21:07;;;;;;;10.75;5.95;;;;;;;;;;6213513;23;20044;-62
2023/07/10 05:23:35;;;;;;;10.00;6.75;;;;;;;;;;6213367;23;20017;-61
2023/07/10 05:26:11;;;;;;;7.55;5.30;;;;;;;;;;6213685;23;20047;-61
2023/07/10 05:28:38;;;;;;;6.72;4.75;;;;;;;;;;6213586;23;20530;-61
2023/07/10 05:31:06;;;;;;;9.18;5.53;;;;;;;;;;6212906;23;20013;-62
2023/07/10 05:33:32;;;;;;;7.45;4.10;;;;;;;;;;6213071;23;20079;-62
2023/07/10 05:35:59;;;;;;;5.78;4.07;;;;;;;;;;6212802;23;20020;-61
2023/07/10 05:38:26;;;;;;;8.88;3.45;;;;;;;;;;6212761;23;20020;-62
2023/07/10 05:40:53;;;;;;;8.75;4.30;;;;;;;;;;6213361;23;20293;-62
2023/07/10 05:43:19;;;;;;;9.57;3.70;;;;;;;;;;6212917;23;20023;-62
2023/07/10 05:45:46;;;;;;;8.55;3.65;;;;;;;;;;6212982;23;20013;-62
2023/07/10 05:48:12;;;;;;;8.55;3.72;;;;;;;;;;6213431;23;20008;-62
2023/07/10 05:50:38;;;;;;;5.25;2.55;;;;;;;;;;6212748;23;20019;-61
2023/07/10 05:53:04;;;;;;;6.95;2.72;;;;;;;;;;6213162;23;20013;-62
2023/07/10 05:55:30;;;;;;;5.65;2.90;;;;;;;;;;6213277;23;20074;-62
2023/07/10 05:57:56;;;;;;;7.38;3.17;;;;;;;;;;6212693;23;20096;-62
2023/07/10 06:00:22;;;;;;;5.90;3.28;;;;;;;;;;6213052;23;20600;-62
2023/07/10 06:02:48;;;;;;;4.22;2.33;;;;;;;;;;6213048;23;20513;-62
2023/07/10 06:05:15;;;;;;;7.55;2.70;;;;;;;;;;6212772;23;20020;-62
2023/07/10 06:07:41;;;;;;;9.32;2.75;;;;;;;;;;6212771;23;20023;-61
2023/07/10 06:10:07;;;;;;;5.47;2.45;;;;;;;;;;6212715;23;20013;-62
2023/07/10 06:12:33;;;;;;;4.25;2.60;;;;;;;;;;6212430;23;20016;-62
2023/07/10 06:14:59;;;;;;;8.02;2.60;;;;;;;;;;6212891;23;20335;-62
2023/07/10 06:17:25;;;;;;;7.35;3.10;;;;;;;;;;6212549;23;20016;-61
2023/07/10 06:19:51;;;;;;;8.68;4.05;;;;;;;;;;6212373;23;20047;-62
2023/07/10 06:22:17;;;;;;;5.45;2.70;;;;;;;;;;6212568;23;20549;-62
2023/07/10 06:24:43;;;;;;;7.00;2.53;;;;;;;;;;6212993;23;20017;-62
2023/07/10 06:27:10;;;;;;;4.70;2.88;;;;;;;;;;6212364;23;20454;-62
2023/07/10 06:29:37;;;;;;;9.95;3.15;;;;;;;;;;6186200;23;20067;-62
2023/07/10 06:32:03;;;;;;;6.63;2.40;;;;;;;;;;6187887;23;20062;-62
2023/07/10 06:34:29;;;;;;;7.45;2.65;;;;;;;;;;6208316;23;20082;-61
2023/07/10 06:36:56;;;;;;;7.57;2.63;;;;;;;;;;6212105;23;20139;-62
2023/07/10 06:39:22;;;;;;;6.22;2.95;;;;;;;;;;6212452;23;20013;-63
2023/07/10 06:41:48;;;;;;;7.07;2.65;;;;;;;;;;6202896;23;20043;-64
2023/07/10 06:44:15;;;;;;;7.28;2.65;;;;;;;;;;6212160;23;20420;-62
2023/07/10 06:46:41;;;;;;;7.15;2.90;;;;;;;;;;6212161;23;20059;-62
2023/07/10 06:49:07;;;;;;;10.25;3.63;;;;;;;;;;6209809;23;20368;-64
2023/07/10 06:51:35;;;;;;;8.07;2.92;;;;;;;;;;6211223;23;20016;-62
2023/07/10 06:54:03;;;;;;;7.18;3.25;;;;;;;;;;6211954;23;20078;-62
2023/07/10 06:56:29;;;;;;;5.68;2.90;;;;;;;;;;6211616;23;20021;-62
2023/07/10 06:58:55;;;;;;;8.63;3.10;;;;;;;;;;6211334;23;20028;-62
2023/07/10 07:01:21;;;;;;;6.13;2.97;;;;;;;;;;6211966;23;20040;-64
2023/07/10 07:03:47;;;;;;;9.70;3.05;;;;;;;;;;6210398;23;20558;-62
2023/07/10 07:06:13;;;;;;;8.38;2.60;;;;;;;;;;6211854;23;20020;-62
2023/07/10 07:08:41;;;;;;;6.53;2.78;;;;;;;;;;6212021;23;20009;-62
2023/07/10 07:11:08;;;;;;;11.50;3.78;;;;;;;;;;6211501;23;20024;-62
2023/07/10 07:13:34;;;;;;;6.63;2.70;;;;;;;;;;6210759;23;20023;-63
2023/07/10 07:16:00;;;;;;;6.40;3.38;;;;;;;;;;6214126;23;20020;-62
2023/07/10 07:18:27;;;;;;;9.05;3.15;;;;;;;;;;6212895;23;20016;-62
2023/07/10 07:20:53;;;;;;;6.88;2.80;;;;;;;;;;6211322;23;20019;-62
2023/07/10 07:23:19;;;;;;;5.40;2.50;;;;;;;;;;6212709;23;20102;-62
2023/07/10 07:25:45;;;;;;;10.50;2.70;;;;;;;;;;6213035;23;20013;-61
2023/07/10 07:28:12;;;;;;;7.25;2.75;;;;;;;;;;6212936;23;20021;-63
2023/07/10 07:30:39;;;;;;;9.15;2.72;;;;;;;;;;6210528;23;20020;-63
2023/07/10 07:33:05;;;;;;;8.35;2.88;;;;;;;;;;6210255;23;20009;-62
2023/07/10 07:35:32;;;;;;;6.13;2.08;;;;;;;;;;6213089;23;20031;-63
2023/07/10 07:37:58;;;;;;;9.25;2.53;;;;;;;;;;6213011;23;20637;-63
2023/07/10 07:40:24;;;;;;;7.18;2.30;;;;;;;;;;6212562;23;20584;-63
2023/07/10 07:42:50;;;;;;;11.38;2.40;;;;;;;;;;6212482;23;20096;-63
2023/07/10 07:45:16;;;;;;;6.25;2.28;;;;;;;;;;6213500;23;20013;-63
2023/07/10 07:47:42;;;;;;;6.22;2.17;;;;;;;;;;6212414;23;20588;-62
2023/07/10 07:50:09;;;;;;;7.70;2.35;;;;;;;;;;6213504;23;20013;-62
2023/07/10 07:52:35;;;;;;;7.35;2.10;;;;;;;;;;6212550;23;20012;-62
2023/07/10 07:55:01;;;;;;;10.93;2.45;;;;;;;;;;6212697;23;20046;-62
2023/07/10 07:57:28;;;;;;;9.18;2.70;;;;;;;;;;6213549;23;20021;-63
2023/07/10 07:59:54;;;;;;;6.95;2.13;;;;;;;;;;6213046;23;20363;-62
2023/07/10 08:02:20;;;;;;;8.45;2.47;;;;;;;;;;6208640;23;20052;-63
2023/07/10 08:04:46;;;;;;;8.00;2.40;;;;;;;;;;6212497;23;20021;-62
2023/07/10 08:07:13;;;;;;;9.05;2.20;;;;;;;;;;6212807;23;20013;-61
2023/07/10 08:09:39;;;;;;;8.38;2.28;;;;;;;;;;6212422;23;20070;-62
2023/07/10 08:12:05;;;;;;;7.47;2.13;;;;;;;;;;6212441;23;20055;-61
2023/07/10 08:14:31;;;;;;;6.20;2.25;;;;;;;;;;6212331;23;20301;-63
2023/07/10 08:16:57;;;;;;;7.95;2.22;;;;;;;;;;6212504;23;20095;-62
2023/07/10 08:19:23;;;;;;;14.20;2.97;;;;;;;;;;6210349;23;20451;-62
2023/07/10 08:21:50;;;;;;;7.20;2.30;;;;;;;;;;6213513;23;20013;-63
2023/07/10 08:24:16;;;;;;;7.38;1.80;;;;;;;;;;6210367;23;20013;-62
2023/07/10 08:26:42;;;;;;;7.88;2.30;;;;;;;;;;6212682;23;20058;-62
2023/07/10 08:29:27;;;;;;;10.35;2.47;;;;;;;;;;6210676;23;20017;-63
2023/07/10 08:31:54;;;;;;;7.15;2.53;;;;;;;;;;6212106;23;20365;-62
2023/07/10 08:34:20;;;;;;;11.60;3.05;;;;;;;;;;6211445;23;20020;-62
2023/07/10 08:36:46;;;;;;;8.25;2.25;;;;;;;;;;6212753;23;20027;-63
2023/07/10 08:39:14;;;;;;;9.13;2.35;;;;;;;;;;6212478;23;20024;-63
2023/07/10 08:41:40;;;;;;;6.90;2.00;;;;;;;;;;6212408;23;20091;-63
2023/07/10 08:44:09;;;;;;;7.05;2.58;;;;;;;;;;6212515;23;20078;-63
2023/07/10 08:46:35;;;;;;;8.20;2.22;;;;;;;;;;6212056;23;20044;-62
2023/07/10 08:49:01;;;;;;;9.75;2.40;;;;;;;;;;6213315;23;20016;-63
2023/07/10 08:51:30;;;;;;;6.60;2.63;;;;;;;;;;6212423;23;20032;-62
2023/07/10 08:54:02;;;;;;;11.05;3.08;;;;;;;;;;6212293;23;20016;-63
2023/07/10 08:56:33;;;;;;;6.28;2.00;;;;;;;;;;6185773;23;20024;-63
2023/07/10 08:59:20;;;;;;;6.68;2.05;;;;;;;;;;6202291;23;20084;-63
2023/07/10 09:01:46;;;;;;;10.05;2.58;;;;;;;;;;6150445;23;20021;-62
2023/07/10 09:04:14;;;;;;;8.73;2.35;;;;;;;;;;6210376;23;20075;-61
2023/07/10 09:06:41;;;;;;;8.77;2.40;;;;;;;;;;6212300;23;20016;-64
2023/07/10 09:09:34;;;;;;;9.35;2.85;;;;;;;;;;6211622;23;20024;-63
2023/07/10 09:12:03;;;;;;;8.45;2.45;;;;;;;;;;6206322;23;20020;-64
2023/07/10 09:14:38;;;;;;;8.65;2.38;;;;;;;;;;6211959;23;20020;-63
2023/07/10 09:17:12;;;;;;;6.82;2.63;;;;;;;;;;6212142;23;20091;-63
2023/07/10 09:19:40;;;;;;;8.93;2.40;;;;;;;;;;6212371;23;20020;-62
2023/07/10 09:22:08;;;;;;;11.13;2.72;;;;;;;;;;6211609;23;20021;-63
2023/07/10 09:24:34;;;;;;;8.27;2.30;;;;;;;;;;6200930;23;20021;-63
2023/07/10 09:27:00;;;;;;;8.68;2.17;;;;;;;;;;6211457;23;20347;-63
2023/07/10 09:29:29;;;;;;;9.15;2.35;;;;;;;;;;6211562;23;20092;-62
2023/07/10 09:32:01;;;;;;;9.88;2.80;;;;;;;;;;6208474;23;20017;-63
2023/07/10 09:34:27;;;;;;;;;;;;;;;;;;6210873;23;20084;-63
2023/07/10 09:36:54;;;;;;;8.90;2.30;;;;;;;;;;6212147;23;20227;-64
2023/07/10 09:39:20;;;;;;;9.43;2.40;;;;;;;;;;6211110;23;20016;-63
2023/07/10 09:41:47;;;;;;;9.98;2.90;;;;;;;;;;6199079;23;20636;-62
2023/07/10 09:44:18;;;;;;;9.57;2.80;;;;;;;;;;6210665;23;20016;-62
2023/07/10 09:46:44;;;;;;;7.65;2.50;;;;;;;;;;6210542;23;20023;-62
2023/07/10 09:49:17;;;;;;;10.25;2.40;;;;;;;;;;6210982;23;20048;-63
2023/07/10 09:51:53;;;;;;;7.82;2.38;;;;;;;;;;6211023;23;20408;-62
2023/07/10 09:54:19;;;;;;;8.25;2.53;;;;;;;;;;6210373;23;20020;-63
2023/07/10 09:56:47;;;;;;;12.20;2.67;;;;;;;;;;6209294;23;20052;-62
2023/07/10 09:59:23;;;;;;;8.00;2.22;;;;;;;;;;6210830;23;20090;-62
2023/07/10 10:01:50;;;;;;;8.75;2.60;;;;;;;;;;6208248;23;20582;-63
2023/07/10 10:04:35;;;;;;;8.07;2.40;;;;;;;;;;6206203;23;20051;-63
2023/07/10 10:07:02;;;;;;;11.35;2.88;;;;;;;;;;6211478;23;20013;-63
2023/07/10 10:09:29;;;;;;;8.63;3.10;;;;;;;;;;6210635;23;20209;-62
2023/07/10 10:11:59;;;;;;;9.23;2.70;;;;;;;;;;6211058;23;20008;-62
2023/07/10 10:14:45;;;;;;;9.80;2.40;;;;;;;;;;6210580;23;20020;-63
2023/07/10 10:17:14;;;;;;;13.57;3.75;;;;;;;;;;6207412;23;20024;-64
2023/07/10 10:19:43;;;;;;;7.55;2.75;;;;;;;;;;6208821;23;20012;-65
2023/07/10 10:22:12;;;;;;;9.35;2.97;;;;;;;;;;6210815;23;20016;-63
2023/07/10 10:24:38;;;;;;;8.30;2.60;;;;;;;;;;6211171;23;20305;-63
2023/07/10 10:27:23;;;;;;;7.53;2.53;;;;;;;;;;6211725;23;20513;-64
2023/07/10 10:29:54;;;;;;;13.82;2.35;;;;;;;;;;6211762;23;20450;-63
2023/07/10 10:32:20;;;;;;;10.43;2.20;;;;;;;;;;6211635;23;20017;-64
2023/07/10 10:34:50;;;;;;;11.25;3.03;;;;;;;;;;6211579;23;20436;-63
2023/07/10 10:37:35;;;;;;;8.35;2.25;;;;;;;;;;6211452;23;20075;-64
2023/07/10 10:40:14;;;;;;;7.60;2.15;;;;;;;;;;6212077;23;20340;-64
2023/07/10 10:42:44;;;;;;;9.70;2.10;;;;;;;;;;6211395;23;20366;-64
2023/07/10 10:45:13;;;;;;;7.80;2.30;;;;;;;;;;6211172;23;20027;-64
2023/07/10 10:47:45;;;;;;;13.57;2.50;;;;;;;;;;6211879;23;20343;-64
2023/07/10 10:50:11;;;;;;;;;;;;;;;;;;6212295;23;20017;-64
2023/07/10 10:52:53;;;;;;;8.45;1.95;;;;;;;;;;6210756;23;19986;-63
2023/07/10 10:55:31;;;;;;;5.55;1.83;;;;;;;;;;6211272;23;20140;-64
2023/07/10 10:57:57;;;;;;;8.15;1.70;;;;;;;;;;6212217;23;20035;-63
2023/07/10 11:00:29;;;;;;;6.65;1.90;;;;;;;;;;6211055;23;20455;-63
2023/07/10 11:02:55;;;;;;;8.70;2.00;;;;;;;;;;6206046;23;20008;-63
2023/07/10 11:05:21;;;;;;;9.00;1.65;;;;;;;;;;6210970;23;20051;-64
2023/07/10 11:07:49;;;;;;;9.30;2.25;;;;;;;;;;6210701;23;20079;-62
2023/07/10 11:10:18;;;;;;;12.90;1.77;;;;;;;;;;6211924;23;20016;-64
2023/07/10 11:12:44;;;;;;;10.48;2.10;;;;;;;;;;6211196;23;20352;-63
2023/07/10 11:15:21;;;;;;;8.27;1.98;;;;;;;;;;6210829;23;20052;-63
2023/07/10 11:17:50;;;;;;;8.15;1.98;;;;;;;;;;6211910;23;20016;-64
2023/07/10 11:20:17;;;;;;;6.30;1.60;;;;;;;;;;6211766;23;20016;-62
2023/07/10 11:22:54;;;;;;;8.55;2.20;;;;;;;;;;6181668;23;20027;-62
2023/07/10 11:25:43;;;;;;;7.68;1.63;;;;;;;;;;6210179;23;20013;-62
2023/07/10 11:28:20;;;;;;;9.70;1.70;;;;;;;;;;6211562;23;20016;-63
2023/07/10 11:30:46;;;;;;;6.97;2.25;;;;;;;;;;6210882;23;20020;-62
2023/07/10 11:33:19;;;;;;;6.93;1.92;;;;;;;;;;6210603;23;20729;-61
2023/07/10 11:36:15;;;;;;;8.02;1.90;;;;;;;;;;6210814;23;20419;-61
2023/07/10 11:38:59;;;;;;;11.32;1.92;;;;;;;;;;6185373;23;20024;-63
2023/07/10 11:41:27;;;;;;;6.40;1.83;;;;;;;;;;6211517;23;20087;-62
2023/07/10 11:43:54;;;;;;;8.00;1.90;;;;;;;;;;6210617;23;20017;-62
2023/07/10 11:46:24;;;;;;;7.57;1.63;;;;;;;;;;6211415;23;20066;-62
2023/07/10 11:48:59;;;;;;;8.40;1.85;;;;;;;;;;6211578;23;20012;-62
2023/07/10 11:51:26;;;;;;;10.65;1.77;;;;;;;;;;6210531;23;20019;-62
2023/07/10 11:54:16;;;;;;;8.52;1.40;;;;;;;;;;6211416;23;20044;-62
2023/07/10 11:56:59;;;;;;;8.98;1.60;;;;;;;;;;6195557;23;20033;-62
2023/07/10 11:59:26;;;;;;;9.88;1.98;;;;;;;;;;6211965;23;20017;-64
2023/07/10 12:01:52;;;;;;;6.80;1.30;;;;;;;;;;6212936;23;20020;-64
2023/07/10 12:04:20;;;;;;;6.43;1.77;;;;;;;;;;6212452;23;20618;-63
2023/07/10 12:06:46;;;;;;;7.03;1.50;;;;;;;;;;6212235;23;20083;-63
2023/07/10 12:09:12;;;;;;;8.88;2.00;;;;;;;;;;6212792;23;20021;-63
2023/07/10 12:11:39;;;;;;;12.32;2.10;;;;;;;;;;6213197;23;20344;-63
2023/07/10 12:14:09;;;;;;;6.57;1.50;;;;;;;;;;6212079;23;20155;-62
2023/07/10 12:16:55;;;;;;;6.53;1.60;;;;;;;;;;6212907;23;20017;-63
2023/07/10 12:19:24;;;;;;;7.65;1.77;;;;;;;;;;6212184;23;20028;-63
2023/07/10 12:21:50;;;;;;;6.50;1.70;;;;;;;;;;6185670;23;20095;-64
2023/07/10 12:24:17;;;;;;;5.57;1.30;;;;;;;;;;6212330;23;20444;-64
2023/07/10 12:26:43;;;;;;;8.27;1.60;;;;;;;;;;6212695;23;20017;-63
2023/07/10 12:29:13;;;;;;;8.68;2.53;;;;;;;;;;6212499;23;20475;-63
2023/07/10 12:31:40;;;;;;;5.10;1.27;;;;;;;;;;6212688;23;20510;-64
2023/07/10 12:34:14;;;;;;;5.47;1.33;;;;;;;;;;6212490;23;20016;-63
2023/07/10 12:36:40;;;;;;;6.22;1.63;;;;;;;;;;6211192;23;20095;-62
2023/07/10 12:39:07;;;;;;;4.30;1.20;;;;;;;;;;6212654;23;20016;-63
2023/07/10 12:41:34;;;;;;;8.05;1.75;;;;;;;;;;6212638;23;20095;-63
2023/07/10 12:44:02;;;;;;;7.03;1.50;;;;;;;;;;6211440;23;20059;-63
2023/07/10 12:46:29;;;;;;;4.82;1.38;;;;;;;;;;6212870;23;20044;-61
2023/07/10 12:48:57;;;;;;;6.65;1.40;;;;;;;;;;6212696;23;20012;-63
2023/07/10 12:51:27;;;;;;;5.22;1.20;;;;;;;;;;6211607;23;20013;-63
2023/07/10 12:53:53;;;;;;;5.38;1.30;;;;;;;;;;6212455;23;20432;-63
2023/07/10 12:56:25;;;;;;;5.13;1.60;;;;;;;;;;6212691;23;20020;-63
2023/07/10 12:58:51;;;;;;;9.13;1.90;;;;;;;;;;6211963;23;20510;-63
2023/07/10 13:01:17;;;;;;;6.05;1.58;;;;;;;;;;6212237;23;20013;-62
2023/07/10 13:03:43;;;;;;;6.00;1.70;;;;;;;;;;6207915;23;20018;-62
2023/07/10 13:06:13;;;;;;;7.57;1.50;;;;;;;;;;6211127;23;20363;-63
2023/07/10 13:08:40;;;;;;;8.35;2.45;;;;;;;;;;6211780;23;20075;-62
2023/07/10 13:11:07;;;;;;;7.03;1.50;;;;;;;;;;6212110;23;20884;-63
2023/07/10 13:13:36;;;;;;;7.20;1.83;;;;;;;;;;6184690;23;20494;-64
2023/07/10 13:16:02;;;;;;;5.85;1.38;;;;;;;;;;6211923;23;20099;-63
2023/07/10 13:18:28;;;;;;;8.73;1.50;;;;;;;;;;6212635;23;20020;-63
2023/07/10 13:20:54;;;;;;;7.15;1.30;;;;;;;;;;6212109;23;20456;-63
2023/07/10 13:23:20;;;;;;;3.35;1.27;;;;;;;;;;6211488;23;20335;-63
2023/07/10 13:25:47;;;;;;;4.85;1.67;;;;;;;;;;6212242;23;20017;-64
2023/07/10 13:28:16;;;;;;;9.15;1.70;;;;;;;;;;6211601;23;20379;-63
2023/07/10 13:30:42;;;;;;;7.78;1.50;;;;;;;;;;6212499;23;20016;-63
2023/07/10 13:33:14;;;;;;;5.40;1.00;;;;;;;;;;6211370;23;20020;-63
2023/07/10 13:35:40;;;;;;;3.35;1.13;;;;;;;;;;6211639;23;20104;-62
2023/07/10 13:38:10;;;;;;;5.05;1.85;;;;;;;;;;6212281;23;20028;-63
2023/07/10 13:40:36;;;;;;;5.88;1.02;;;;;;;;;;6211087;23;20016;-64
2023/07/10 13:43:02;;;;;;;3.90;1.10;;;;;;;;;;6211515;23;20070;-63
2023/07/10 13:45:28;;;;;;;5.40;1.17;;;;;;;;;;6212367;23;20019;-62
2023/07/10 13:47:54;;;;;;;4.60;1.20;;;;;;;;;;6212277;23;20009;-63
2023/07/10 13:50:20;;;;;;;4.57;1.45;;;;;;;;;;6211899;23;20009;-63
2023/07/10 13:52:46;;;;;;;4.57;0.95;;;;;;;;;;6211827;23;20719;-63
2023/07/10 13:55:13;;;;;;;6.28;1.20;;;;;;;;;;6211874;23;20362;-63
2023/07/10 13:57:39;;;;;;;4.80;1.25;;;;;;;;;;6211763;23;20024;-63
2023/07/10 14:00:06;;;;;;;7.22;1.10;;;;;;;;;;6211876;23;20466;-63
2023/07/10 14:02:34;;;;;;;3.53;0.85;;;;;;;;;;6211832;23;20016;-64
2023/07/10 14:05:01;;;;;;;4.28;1.10;;;;;;;;;;6211761;23;20431;-62
2023/07/10 14:07:28;;;;;;;4.30;0.90;;;;;;;;;;6212066;23;20432;-63
2023/07/10 14:09:58;;;;;;;3.75;0.70;;;;;;;;;;6211955;23;20471;-64
2023/07/10 14:12:24;;;;;;;3.78;1.08;;;;;;;;;;6211495;23;20013;-63
2023/07/10 14:14:50;;;;;;;2.88;0.98;;;;;;;;;;6212379;23;20316;-62
2023/07/10 14:17:21;;;;;;;3.15;0.75;;;;;;;;;;6212159;23;20063;-62
2023/07/10 14:19:47;;;;;;;4.55;1.20;;;;;;;;;;6211952;23;20013;-62
2023/07/10 14:22:13;;;;;;;4.82;1.20;;;;;;;;;;6211275;23;20375;-63
2023/07/10 14:24:39;;;;;;;3.95;1.00;;;;;;;;;;6210597;23;20055;-62
2023/07/10 14:27:15;;;;;;;3.15;1.00;;;;;;;;;;6211915;23;20008;-62
2023/07/10 14:29:41;;;;;;;4.40;0.90;;;;;;;;;;6212376;23;20448;-61
2023/07/10 14:32:18;;;;;;;2.72;0.85;;;;;;;;;;6212311;23;20024;-62
2023/07/10 14:34:44;;;;;;;3.33;1.27;;;;;;;;;;6211328;23;20016;-63
2023/07/10 14:37:13;;;;;;;5.05;1.30;;;;;;;;;;6212355;23;20017;-63
2023/07/10 14:39:40;;;;;;;5.85;1.10;;;;;;;;;;6212269;23;20869;-63